Terminal Aerodrome Forecast
Issued by NWS

Home | Current Version | Previous Version | Text Only | Print | Product List | Glossary On
Versions: 1 2 3 4 5 6 7 8 9 10 11 12 13 14 15 16 17 18 19 20 21 22 23 24 25 26
000
FTUS43 KSGF 040400 AAA
TAFBBG
TAF AMD
KBBG 040437Z 0405/0424 VRB03KT 4SM -RADZ BR OVC012
     FM040700 35005KT 3SM -RADZ BR OVC008
     FM041000 36010KT 2SM -RADZ BR OVC005
     FM041200 34006KT 2SM -FZRASNPL BR OVC003
     FM041600 36008KT 1SM -SN OVC005
      TEMPO 0416/0420 1/2SM SN FG VV004=

USA.gov is the U.S. government's official web portal to all federal, state and local government web resources and services.